Time;durP1;ratioP1;P1;durP2;ratioP2;P2;SDS_P1;SDS_P2;PMS_P1;PMS_P2;Temp;Humidity;BMP_temperature;BMP_pressure;BME280_temperature;BME280_humidity;BME280_pressure;Samples;Min_cycle;Max_cycle;Signal;HPM_P1;HPM_P2
2022/09/29 00:01:55;;;;;;;;;1.00;0.00;;;;;15.69;74.08;99520.25;5058302;28;45712;-70
2022/09/29 00:04:21;;;;;;;;;0.00;0.00;;;;;15.73;74.10;99530.81;5057627;28;45630;-69
2022/09/29 00:06:46;;;;;;;;;0.00;0.00;;;;;15.74;73.80;99533.44;5058434;28;45867;-70
2022/09/29 00:09:12;;;;;;;;;0.00;0.00;;;;;15.70;74.10;99521.16;5058692;28;45390;-70
2022/09/29 00:11:37;;;;;;;;;0.00;0.00;;;;;15.74;74.13;99522.91;5073842;28;47162;-70
2022/09/29 00:14:03;;;;;;;;;2.00;2.00;;;;;15.81;73.95;99526.34;5058743;28;45433;-70
2022/09/29 00:16:28;;;;;;;;;0.00;0.00;;;;;15.77;73.94;99527.28;5058302;28;45485;-70
2022/09/29 00:18:54;;;;;;;;;0.00;0.00;;;;;15.70;74.09;99522.03;5071012;28;45516;-70
2022/09/29 00:21:20;;;;;;;;;1.00;0.00;;;;;15.76;74.03;99520.28;5046915;28;45777;-70
2022/09/29 00:23:47;;;;;;;;;0.00;0.00;;;;;15.68;74.12;99502.72;5058070;28;45565;-69
2022/09/29 00:26:16;;;;;;;;;0.33;0.33;;;;;15.81;74.16;99518.47;5058092;28;45456;-69
2022/09/29 00:28:48;;;;;;;;;0.00;0.00;;;;;15.79;74.64;99521.09;5043082;28;45524;-70
2022/09/29 00:31:14;;;;;;;;;1.00;0.00;;;;;15.73;74.73;99507.97;5057930;28;45343;-70
2022/09/29 00:33:41;;;;;;;;;0.67;0.00;;;;;15.66;74.39;99496.59;5056661;28;45498;-70
2022/09/29 00:36:11;;;;;;;;;0.00;0.00;;;;;15.77;74.04;99507.06;5057272;28;45374;-70
2022/09/29 00:38:37;;;;;;;;;0.00;0.00;;;;;15.68;74.45;99494.81;5058143;28;45568;-69
2022/09/29 00:41:04;;;;;;;;;0.00;0.00;;;;;15.73;74.62;99507.13;5057600;28;45546;-70
2022/09/29 00:43:56;;;;;;;;;0.00;0.00;;;;;15.75;74.41;99519.38;5057588;28;45482;-70
2022/09/29 00:46:54;;;;;;;;;0.00;0.00;;;;;15.67;74.60;99505.38;5058239;28;45651;-70
2022/09/29 00:49:32;;;;;;;;;0.00;0.00;;;;;15.68;75.15;99510.63;5074050;28;45377;-70
2022/09/29 00:52:09;;;;;;;;;0.00;0.00;;;;;15.55;75.20;99495.78;5057879;28;45959;-70
2022/09/29 00:54:44;;;;;;;;;0.00;0.00;;;;;15.61;74.93;99501.00;5056027;28;45469;-70
2022/09/29 00:57:16;;;;;;;;;0.00;0.00;;;;;15.57;75.37;99494.03;5043386;28;45445;-70
2022/09/29 00:59:58;;;;;;;;;0.00;0.00;;;;;15.63;75.09;99503.63;5057996;28;45442;-70
2022/09/29 01:02:25;;;;;;;;;0.00;0.00;;;;;15.55;75.18;99482.63;5057324;28;46612;-70
2022/09/29 01:04:54;;;;;;;;;0.00;0.00;;;;;15.55;75.35;99487.91;5058070;28;45839;-71
2022/09/29 01:07:22;;;;;;;;;0.00;0.00;;;;;15.56;75.66;99494.94;5057616;28;45484;-70
2022/09/29 01:09:52;;;;;;;;;0.00;0.00;;;;;15.48;75.59;99473.91;5057833;28;45566;-69
2022/09/29 01:12:19;;;;;;;;;1.00;0.00;;;;;15.59;75.30;99487.00;5055509;28;47274;-70
2022/09/29 01:14:46;;;;;;;;;0.00;0.00;;;;;15.57;75.48;99483.50;5057408;28;45331;-70
2022/09/29 01:17:12;;;;;;;;;0.00;0.00;;;;;15.46;75.15;99445.88;5057852;28;45363;-70
2022/09/29 01:19:59;;;;;;;;;0.00;0.00;;;;;15.55;75.27;99458.09;5057722;28;45611;-70
2022/09/29 01:22:48;;;;;;;;;0.00;0.00;;;;;15.51;75.26;99457.22;5057613;28;46492;-70
2022/09/29 01:25:26;;;;;;;;;0.00;0.00;;;;;15.43;75.27;99443.25;5057655;28;45251;-70
2022/09/29 01:28:09;;;;;;;;;0.00;0.00;;;;;15.48;75.48;99458.13;5057480;28;45354;-70
2022/09/29 01:31:03;;;;;;;;;0.00;0.00;;;;;15.44;75.72;99451.16;5057245;28;45314;-70
2022/09/29 01:33:50;;;;;;;;;0.00;0.00;;;;;15.43;75.96;99440.63;5057102;28;46120;-71
2022/09/29 01:36:43;;;;;;;;;0.00;0.00;;;;;15.44;76.43;99445.00;5057441;28;45330;-71
2022/09/29 01:39:27;;;;;;;;;0.00;0.00;;;;;15.43;75.85;99443.25;5057454;28;45388;-70
2022/09/29 01:42:01;;;;;;;;;0.00;0.00;;;;;15.42;76.05;99454.66;5057281;28;45462;-70
2022/09/29 01:44:41;;;;;;;;;0.00;0.00;;;;;15.36;75.69;99437.16;5057064;28;46426;-70
2022/09/29 01:47:15;;;;;;;;;0.00;0.00;;;;;15.43;75.75;99435.34;5057079;28;45299;-70
2022/09/29 01:49:45;;;;;;;;;0.00;0.00;;;;;15.39;75.86;99441.53;5040064;28;45622;-70
2022/09/29 01:52:16;;;;;;;;;0.67;0.00;;;;;15.39;75.78;99433.63;5057160;28;45386;-70
2022/09/29 01:54:58;;;;;;;;;0.00;0.00;;;;;15.29;75.75;99424.94;5055645;28;46666;-71
2022/09/29 01:57:46;;;;;;;;;0.00;0.00;;;;;15.35;76.01;99427.50;5055394;28;45507;-69
2022/09/29 02:00:15;;;;;;;;;0.00;0.00;;;;;15.28;75.50;99407.41;5056674;28;45425;-70
2022/09/29 02:02:57;;;;;;;;;0.00;0.00;;;;;15.41;75.58;99424.84;5055687;28;45430;-71
2022/09/29 02:05:30;;;;;;;;;0.67;0.00;;;;;15.41;75.74;99408.19;5041298;28;46038;-70
2022/09/29 02:08:01;;;;;;;;;0.00;0.00;;;;;15.33;75.65;99397.72;5056879;28;45292;-70
2022/09/29 02:10:36;;;;;;;;;0.00;0.00;;;;;15.31;75.98;99389.81;5057060;28;45401;-70
2022/09/29 02:13:05;;;;;;;;;0.00;0.00;;;;;15.36;75.69;99408.22;5056430;28;45338;-70
2022/09/29 02:15:37;;;;;;;;;0.00;0.00;;;;;15.28;75.75;99389.00;5054725;28;46520;-70
2022/09/29 02:18:12;;;;;;;;;0.00;0.00;;;;;15.38;75.68;99424.88;5056001;28;45430;-70
2022/09/29 02:20:37;;;;;;;;;0.00;0.00;;;;;15.32;75.85;99399.47;5055948;28;45515;-70
2022/09/29 02:23:03;;;;;;;;;0.00;0.00;;;;;15.37;76.37;99417.84;5056640;28;45524;-70
2022/09/29 02:25:33;;;;;;;;;0.00;0.00;;;;;15.36;76.69;99409.97;5056049;28;45471;-70
2022/09/29 02:28:00;;;;;;;;;0.00;0.00;;;;;15.20;76.00;99380.25;5072335;28;45558;-69
2022/09/29 02:30:25;;;;;;;;;0.00;0.00;;;;;15.24;76.29;99388.13;5056135;28;45478;-70
2022/09/29 02:32:51;;;;;;;;;0.67;0.00;;;;;15.26;76.37;99390.72;5056940;28;45419;-70
2022/09/29 02:35:17;;;;;;;;;0.00;0.00;;;;;15.22;76.67;99395.16;5056389;28;46053;-70
2022/09/29 02:37:45;;;;;;;;;0.00;0.00;;;;;15.30;76.42;99417.03;5056548;28;45485;-70
2022/09/29 02:40:17;;;;;;;;;0.00;0.00;;;;;15.22;76.86;99417.94;5056271;28;45746;-70
2022/09/29 02:42:59;;;;;;;;;0.00;0.00;;;;;15.21;77.01;99403.06;5071612;27;45634;-70
2022/09/29 02:45:39;;;;;;;;;0.00;0.00;;;;;15.23;76.98;99410.06;5054767;28;47662;-70
2022/09/29 02:48:29;;;;;;;;;0.00;0.00;;;;;15.26;76.97;99415.31;5055740;28;45366;-70
2022/09/29 02:51:12;;;;;;;;;0.00;0.00;;;;;15.31;76.35;99404.75;5056080;28;45342;-70
2022/09/29 02:53:55;;;;;;;;;0.00;0.00;;;;;15.32;76.30;99415.25;5067949;28;45809;-70
2022/09/29 02:56:44;;;;;;;;;0.00;0.00;;;;;15.32;76.61;99417.91;5050136;28;46109;-70
2022/09/29 02:59:15;;;;;;;;;0.00;0.00;;;;;15.11;76.38;99371.56;5021597;28;45528;-70
2022/09/29 03:01:50;;;;;;;;;0.00;0.00;;;;;15.34;76.19;99401.19;5055671;28;45622;-70
2022/09/29 03:04:17;;;;;;;;;1.00;0.00;;;;;15.25;76.42;99379.34;5056566;28;45361;-70
2022/09/29 03:06:43;;;;;;;;;0.67;0.00;;;;;15.34;76.58;99377.53;5055332;28;45341;-70
2022/09/29 03:09:08;;;;;;;;;0.00;0.00;;;;;15.23;76.33;99360.06;5057666;28;45487;-70
2022/09/29 03:11:34;;;;;;;;;0.67;0.00;;;;;15.20;76.77;99367.09;5059618;28;45562;-71
2022/09/29 03:13:59;;;;;;;;;0.00;0.00;;;;;15.16;76.86;99366.28;5059414;28;45429;-70
2022/09/29 03:16:25;;;;;;;;;0.00;0.00;;;;;15.08;76.87;99352.28;5059127;28;46338;-70
2022/09/29 03:18:51;;;;;;;;;0.67;0.00;;;;;15.08;76.93;99357.56;5059445;28;45588;-70
2022/09/29 03:21:17;;;;;;;;;0.00;0.00;;;;;15.09;76.92;99354.06;5058903;28;45384;-70
2022/09/29 03:23:42;;;;;;;;;0.00;0.00;;;;;15.02;76.60;99347.97;5057481;28;45425;-71
2022/09/29 03:26:08;;;;;;;;;0.00;0.00;;;;;15.07;76.58;99342.66;5059339;28;45854;-70
2022/09/29 03:28:34;;;;;;;;;0.00;0.00;;;;;14.98;76.87;99335.72;5059217;28;45843;-71
2022/09/29 03:31:05;;;;;;;;;0.00;0.00;;;;;15.00;77.03;99343.59;5059194;28;45397;-70
2022/09/29 03:33:31;;;;;;;;;1.00;0.00;;;;;14.96;76.62;99331.34;5060295;28;45673;-70
2022/09/29 03:35:56;;;;;;;;;0.00;0.00;;;;;14.90;76.28;99325.28;5058217;28;46143;-70
2022/09/29 03:38:22;;;;;;;;;0.00;0.00;;;;;14.96;76.13;99331.34;5059014;28;45388;-71
2022/09/29 03:40:47;;;;;;;;;0.00;0.00;;;;;14.96;75.69;99329.63;5059027;28;45309;-70
2022/09/29 03:43:13;;;;;;;;;0.00;0.00;;;;;14.95;75.67;99324.34;5059610;28;45308;-70
2022/09/29 03:45:50;;;;;;;;;0.00;0.00;;;;;15.06;75.43;99352.31;5058264;28;45581;-71
2022/09/29 03:48:17;;;;;;;;;0.00;0.00;;;;;15.03;75.32;99339.19;5058517;28;45585;-71
2022/09/29 03:50:49;;;;;;;;;0.00;0.00;;;;;15.03;75.77;99354.09;5059136;28;45354;-69
2022/09/29 03:53:15;;;;;;;;;0.00;0.00;;;;;15.02;75.73;99363.75;5058948;28;45258;-70
2022/09/29 03:55:45;;;;;;;;;0.00;0.00;;;;;15.00;75.98;99348.84;5058214;28;46319;-70
2022/09/29 03:58:10;;;;;;;;;0.00;0.00;;;;;15.04;75.95;99358.47;5058129;28;46086;-71
2022/09/29 04:00:36;;;;;;;;;1.00;0.00;;;;;14.97;75.63;99344.50;5059186;28;45471;-70
2022/09/29 04:03:02;;;;;;;;;0.67;0.00;;;;;15.13;75.92;99361.03;5059165;28;45448;-70
2022/09/29 04:05:28;;;;;;;;;0.00;0.00;;;;;15.09;75.80;99360.19;5058939;28;46440;-70
2022/09/29 04:07:54;;;;;;;;;0.00;0.00;;;;;15.07;75.76;99350.56;5058149;28;45635;-71
2022/09/29 04:10:20;;;;;;;;;0.00;0.00;;;;;15.02;75.73;99347.97;5058366;28;45533;-70
2022/09/29 04:12:45;;;;;;;;;0.00;0.00;;;;;15.03;75.65;99351.47;5058724;28;45473;-70
2022/09/29 04:15:11;;;;;;;;;0.00;0.00;;;;;15.04;76.06;99358.47;5058073;28;45503;-70
2022/09/29 04:17:36;;;;;;;;;0.00;0.00;;;;;15.00;75.91;99364.63;5073321;27;45624;-69
2022/09/29 04:20:02;;;;;;;;;0.00;0.00;;;;;14.90;75.97;99354.19;5057027;28;45378;-71
2022/09/29 04:22:28;;;;;;;;;0.00;0.00;;;;;14.98;76.14;99362.03;5057612;28;45539;-70
2022/09/29 04:24:53;;;;;;;;;0.00;0.00;;;;;14.95;76.17;99363.81;5057436;28;45891;-70
2022/09/29 04:27:19;;;;;;;;;0.00;0.00;;;;;14.90;76.07;99345.41;5057290;28;45653;-69
2022/09/29 04:29:45;;;;;;;;;0.00;0.00;;;;;14.91;75.93;99329.63;5057602;28;45629;-70
2022/09/29 04:32:10;;;;;;;;;0.00;0.00;;;;;14.95;76.17;99355.91;5047191;28;46923;-69
2022/09/29 04:34:36;;;;;;;;;0.00;0.00;;;;;14.95;75.92;99359.41;5045186;28;45537;-69
2022/09/29 04:37:02;;;;;;;;;0.00;0.00;;;;;14.84;75.71;99342.81;5047224;28;45488;-69
2022/09/29 04:39:27;;;;;;;;;0.00;0.00;;;;;14.78;75.86;99332.34;5046898;28;45577;-69
2022/09/29 04:41:53;;;;;;;;;0.00;0.00;;;;;14.73;76.34;99323.63;5048408;28;45502;-69
2022/09/29 04:44:21;;;;;;;;;0.00;0.00;;;;;14.70;76.39;99308.72;5028315;28;46583;-70
2022/09/29 04:46:49;;;;;;;;;0.00;0.00;;;;;14.78;76.68;99317.47;5048626;28;45340;-69
2022/09/29 04:49:14;;;;;;;;;1.00;0.00;;;;;14.69;76.56;99309.63;5046290;28;45495;-70
2022/09/29 04:51:40;;;;;;;;;1.00;0.00;;;;;14.68;76.72;99307.88;5021753;28;45431;-69
2022/09/29 04:54:06;;;;;;;;;0.00;0.00;;;;;14.62;76.64;99307.91;5037517;28;45407;-71
2022/09/29 04:56:31;;;;;;;;;1.00;0.00;;;;;14.60;77.07;99307.91;5037475;28;45459;-70
2022/09/29 04:58:57;;;;;;;;;0.00;0.00;;;;;14.71;77.04;99324.50;5037614;28;45446;-70
2022/09/29 05:01:23;;;;;;;;;0.00;0.00;;;;;14.68;77.39;99321.91;5038032;28;45464;-70
2022/09/29 05:03:48;;;;;;;;;2.00;0.00;;;;;14.66;77.90;99314.91;5037123;28;46567;-71
2022/09/29 05:06:14;;;;;;;;;0.00;0.00;;;;;14.67;77.46;99316.66;5037541;28;45475;-70
2022/09/29 05:08:40;;;;;;;;;2.00;1.00;;;;;14.68;77.33;99315.75;5037327;28;45656;-71
2022/09/29 05:11:06;;;;;;;;;2.00;2.00;;;;;14.68;77.40;99310.50;5036379;28;45479;-71
2022/09/29 05:13:33;;;;;;;;;0.00;0.00;;;;;14.62;77.67;99297.41;5032482;28;47225;-70
2022/09/29 05:15:58;;;;;;;;;0.00;0.00;;;;;14.59;77.81;99302.69;5031695;28;45590;-70
2022/09/29 05:18:24;;;;;;;;;0.33;0.00;;;;;14.64;77.77;99295.63;5037298;28;45858;-70
2022/09/29 05:20:50;;;;;;;;;1.00;0.00;;;;;14.63;77.33;99286.03;5037281;28;45617;-70
2022/09/29 05:23:16;;;;;;;;;0.00;0.00;;;;;14.58;77.29;99274.66;5036894;28;46442;-70
2022/09/29 05:25:42;;;;;;;;;0.00;0.00;;;;;14.63;77.43;99280.78;5037460;28;45484;-70
2022/09/29 05:28:09;;;;;;;;;0.00;0.00;;;;;14.60;77.03;99278.16;5037577;28;45469;-70
2022/09/29 05:30:36;;;;;;;;;0.00;0.00;;;;;14.63;76.93;99288.66;5043040;28;45348;-70
2022/09/29 05:33:02;;;;;;;;;0.00;0.00;;;;;14.51;77.21;99274.66;5056053;28;46164;-69
2022/09/29 05:35:27;;;;;;;;;0.00;0.00;;;;;14.55;77.30;99275.53;5056954;28;45512;-70
2022/09/29 05:37:53;;;;;;;;;0.00;0.00;;;;;14.58;77.08;99278.16;5057537;28;45387;-70
2022/09/29 05:40:18;;;;;;;;;0.00;0.00;;;;;14.63;76.84;99279.00;5057378;28;45224;-70
2022/09/29 05:42:45;;;;;;;;;0.00;0.00;;;;;14.60;76.65;99268.50;5073026;27;46409;-69
2022/09/29 05:45:10;;;;;;;;;0.00;0.00;;;;;14.63;76.41;99271.13;5057196;28;45434;-70
2022/09/29 05:47:41;;;;;;;;;0.00;0.00;;;;;14.64;76.05;99274.63;5057204;28;45410;-70
2022/09/29 05:50:07;;;;;;;;;0.00;0.00;;;;;14.55;76.04;99251.00;5057264;28;45359;-69
2022/09/29 05:52:33;;;;;;;;;0.00;0.00;;;;;14.62;75.98;99264.13;5056133;28;45424;-70
2022/09/29 05:54:58;;;;;;;;;0.00;0.00;;;;;14.57;76.08;99254.53;5055857;28;45406;-69
2022/09/29 05:57:24;;;;;;;;;0.00;0.00;;;;;14.66;75.84;99255.34;5056514;28;45436;-69
2022/09/29 05:59:49;;;;;;;;;0.00;0.00;;;;;14.60;75.84;99236.09;5057506;28;45656;-69
2022/09/29 06:02:15;;;;;;;;;1.00;0.00;;;;;14.69;75.83;99250.03;5054723;28;46919;-71
2022/09/29 06:04:41;;;;;;;;;1.00;1.00;;;;;14.25;75.69;99182.88;5057053;28;45285;-70
2022/09/29 06:07:07;;;;;;;;;0.00;0.00;;;;;14.19;75.62;99171.56;5056715;28;45442;-70
2022/09/29 06:09:34;;;;;;;;;0.00;0.00;;;;;14.50;75.72;99230.91;5057215;28;45886;-70
2022/09/29 06:12:01;;;;;;;;;0.00;0.00;;;;;14.66;75.76;99257.97;5056632;28;45692;-71
2022/09/29 06:14:27;;;;;;;;;0.00;0.00;;;;;14.64;75.47;99258.84;5055885;28;45408;-70
2022/09/29 06:16:52;;;;;;;;;1.00;1.00;;;;;14.56;75.53;99258.88;5051662;28;45423;-68
2022/09/29 06:19:18;;;;;;;;;0.00;0.00;;;;;14.41;75.47;99233.56;5051787;28;45383;-69
2022/09/29 06:21:44;;;;;;;;;4.33;4.00;;;;;14.66;75.54;99263.22;5055609;28;45581;-71
2022/09/29 06:24:10;;;;;;;;;2.00;1.00;;;;;14.57;75.39;99246.66;5055576;28;45474;-70
2022/09/29 06:26:35;;;;;;;;;0.00;0.00;;;;;14.66;75.72;99259.69;5054241;28;45678;-69
2022/09/29 06:29:01;;;;;;;;;0.00;0.00;;;;;14.67;75.49;99256.19;5055574;28;45459;-69
2022/09/29 06:31:28;;;;;;;;;0.33;0.33;;;;;14.78;75.13;99270.16;5071029;28;50225;-69
2022/09/29 06:33:59;;;;;;;;;0.00;0.00;;;;;14.60;75.28;99242.22;5055595;28;45615;-70
2022/09/29 06:39:14;;;;;;;;;0.00;0.00;;;;;14.84;75.48;99270.09;5055776;28;45262;-70
2022/09/29 06:41:40;;;;;;;;;0.00;0.00;;;;;14.77;75.28;99257.88;5054819;28;46456;-71
2022/09/29 06:44:06;;;;;;;;;0.00;0.00;;;;;14.84;75.03;99254.31;5052577;28;45461;-70
2022/09/29 06:46:32;;;;;;;;;0.00;0.00;;;;;14.71;74.84;99240.38;5055415;28;45434;-70
2022/09/29 06:48:57;;;;;;;;;0.00;0.00;;;;;14.40;74.69;99179.25;5055048;28;45574;-70
2022/09/29 06:51:24;;;;;;;;;0.00;0.00;;;;;14.92;74.74;99264.75;5055121;28;45446;-70
2022/09/29 06:53:50;;;;;;;;;0.00;0.00;;;;;14.93;74.35;99274.41;5054411;28;45433;-69
2022/09/29 06:56:17;;;;;;;;;0.00;0.00;;;;;14.93;74.56;99273.53;5051964;28;45808;-70
2022/09/29 06:58:44;;;;;;;;;0.00;0.00;;;;;14.93;75.12;99279.66;5008988;28;45575;-69
2022/09/29 07:01:10;;;;;;;;;0.00;0.00;;;;;14.94;75.11;99305.09;5035212;28;46497;-70
2022/09/29 07:03:36;;;;;;;;;0.00;0.00;;;;;14.87;74.92;99314.75;5033519;28;45481;-70
2022/09/29 07:06:04;;;;;;;;;0.00;0.00;;;;;14.86;75.13;99310.41;5035253;28;45557;-69
2022/09/29 07:08:30;;;;;;;;;0.00;0.00;;;;;14.83;74.70;99336.69;5035274;28;45516;-69
2022/09/29 07:10:56;;;;;;;;;0.00;0.00;;;;;14.56;74.42;99300.94;5033490;28;47332;-70
2022/09/29 07:13:22;;;;;;;;;0.00;0.00;;;;;14.55;74.61;99295.69;5034430;28;45591;-70
2022/09/29 07:15:47;;;;;;;;;0.00;0.00;;;;;14.56;73.71;99303.56;5032867;28;45412;-70
2022/09/29 07:18:13;;;;;;;;;0.00;0.00;;;;;14.43;74.39;99294.88;5034729;28;45775;-70
2022/09/29 07:20:39;;;;;;;;;0.00;0.00;;;;;14.60;74.05;99328.94;5039699;28;46575;-70
2022/09/29 07:23:07;;;;;;;;;0.00;0.00;;;;;14.60;74.70;99322.81;5036698;28;45381;-69
2022/09/29 07:25:33;;;;;;;;;0.00;0.00;;;;;14.50;74.67;99316.72;5026808;28;45544;-70
2022/09/29 07:27:59;;;;;;;;;0.00;0.00;;;;;14.60;74.54;99314.94;5028816;28;45820;-70
2022/09/29 07:30:26;;;;;;;;;0.00;0.00;;;;;14.63;74.89;99320.19;5026810;28;45553;-70
2022/09/29 07:32:54;;;;;;;;;0.00;0.00;;;;;14.65;74.83;99321.91;5024979;28;45489;-71
2022/09/29 07:35:20;;;;;;;;;0.00;0.00;;;;;14.57;74.88;99313.22;5027042;28;45442;-70
2022/09/29 07:37:53;;;;;;;;;0.00;0.00;;;;;14.60;74.98;99326.31;5027998;28;45791;-70
2022/09/29 07:40:21;;;;;;;;;0.00;0.00;;;;;14.60;75.23;99325.44;5027485;28;45430;-70
2022/09/29 07:42:47;;;;;;;;;0.00;0.00;;;;;14.45;75.81;99316.75;5026338;28;45932;-70
2022/09/29 07:45:13;;;;;;;;;0.00;0.00;;;;;14.44;75.74;99311.50;5025765;28;45675;-70
2022/09/29 07:47:38;;;;;;;;;0.00;0.00;;;;;14.43;75.68;99339.53;5026850;28;45468;-70
2022/09/29 07:50:04;;;;;;;;;0.00;0.00;;;;;14.36;77.10;99335.19;5023341;28;45560;-70
2022/09/29 07:52:30;;;;;;;;;0.00;0.00;;;;;14.31;76.95;99339.59;5022546;28;45470;-70
2022/09/29 07:54:55;;;;;;;;;0.00;0.00;;;;;14.29;77.17;99344.84;5031744;28;45587;-70
2022/09/29 07:57:21;;;;;;;;;0.00;0.00;;;;;14.36;77.02;99350.06;5018630;28;45696;-71
2022/09/29 07:59:47;;;;;;;;;0.00;0.00;;;;;14.36;77.40;99361.44;5018303;28;45713;-71
2022/09/29 08:02:12;;;;;;;;;0.00;0.00;;;;;14.33;77.34;99366.72;5018192;28;45490;-70
2022/09/29 08:04:38;;;;;;;;;0.00;0.00;;;;;14.32;77.62;99364.97;5018367;28;45469;-70
2022/09/29 08:07:03;;;;;;;;;0.00;0.00;;;;;14.29;77.77;99367.63;5018336;28;45584;-70
2022/09/29 08:09:29;;;;;;;;;0.00;0.00;;;;;14.30;77.10;99350.97;5037222;28;45449;-70
2022/09/29 08:11:54;;;;;;;;;0.00;0.00;;;;;14.29;76.63;99349.25;5037243;28;45472;-73
2022/09/29 08:14:21;;;;;;;;;0.00;0.00;;;;;14.28;76.53;99345.75;5038033;28;45527;-70
2022/09/29 08:16:46;;;;;;;;;0.00;0.00;;;;;14.37;76.63;99364.97;5037859;28;45533;-70
2022/09/29 08:19:12;;;;;;;;;0.00;0.00;;;;;14.32;76.69;99354.47;5037163;28;45492;-69
2022/09/29 08:21:37;;;;;;;;;0.00;0.00;;;;;14.28;76.25;99358.88;5031102;28;45402;-69
2022/09/29 08:24:05;;;;;;;;;0.00;0.00;;;;;14.28;76.05;99368.50;5028266;28;45912;-70
2022/09/29 08:26:34;;;;;;;;;0.00;0.00;;;;;14.25;75.80;99358.00;5030913;28;45497;-70
2022/09/29 08:29:01;;;;;;;;;0.00;0.00;;;;;14.20;75.88;99352.75;5029317;28;45693;-69
2022/09/29 08:31:27;;;;;;;;;0.00;0.00;;;;;14.14;75.67;99350.16;5027688;28;45456;-69
2022/09/29 08:33:56;;;;;;;;;0.00;0.00;;;;;14.18;75.92;99358.91;5029174;28;45456;-69
2022/09/29 08:36:22;;;;;;;;;0.00;0.00;;;;;14.20;75.49;99368.50;5030341;28;45533;-70
2022/09/29 08:38:50;;;;;;;;;0.00;0.00;;;;;14.16;75.53;99365.91;5031147;28;46448;-70
2022/09/29 08:41:42;;;;;;;;;0.00;0.00;;;;;14.10;75.77;99370.28;5034647;28;45410;-69
2022/09/29 08:44:21;;;;;;;;;0.00;0.00;;;;;13.90;76.60;99348.50;5033249;28;45909;-68
2022/09/29 08:46:54;;;;;;;;;0.00;0.00;;;;;13.90;75.82;99351.97;5037356;28;45273;-68
2022/09/29 08:49:25;;;;;;;;;0.00;0.00;;;;;13.99;75.80;99361.59;5037678;28;46764;-70
2022/09/29 08:52:02;;;;;;;;;0.00;0.00;;;;;13.98;75.53;99349.34;5037126;28;45407;-69
2022/09/29 08:54:28;;;;;;;;;0.00;0.00;;;;;13.95;75.70;99343.22;5037008;28;45638;-69
2022/09/29 08:56:53;;;;;;;;;0.00;0.00;;;;;13.81;76.23;99328.41;5037442;28;46984;-69
2022/09/29 08:59:20;;;;;;;;;0.00;0.00;;;;;13.83;76.04;99320.53;5038087;28;46416;-69
2022/09/29 09:01:56;;;;;;;;;0.00;0.00;;;;;13.87;76.03;99320.50;5036600;28;45473;-69
2022/09/29 09:04:24;;;;;;;;;0.00;0.00;;;;;13.85;75.89;99298.63;5033340;28;45498;-70
2022/09/29 09:06:56;;;;;;;;;0.00;0.00;;;;;13.82;76.23;99317.00;5032956;28;45574;-69
2022/09/29 09:10:01;;;;;;;;;0.00;0.00;;;;;13.72;75.91;99294.28;5030410;28;46006;-69
2022/09/29 09:12:40;;;;;;;;;0.00;0.00;;;;;13.75;76.47;99289.06;5028997;28;45605;-69
2022/09/29 09:15:40;;;;;;;;;0.00;0.00;;;;;13.95;75.70;99309.09;5027351;28;45941;-70
2022/09/29 09:18:27;;;;;;;;;0.00;0.00;;;;;14.02;75.28;99313.44;5037435;28;45378;-69
2022/09/29 09:20:59;;;;;;;;;0.00;0.00;;;;;13.95;75.46;99280.19;5024741;28;45413;-69
2022/09/29 09:23:33;;;;;;;;;0.00;0.00;;;;;14.03;75.14;99270.56;5037310;28;45400;-69
2022/09/29 09:26:01;;;;;;;;;0.00;0.00;;;;;14.20;74.75;99291.47;5037022;28;45748;-69
2022/09/29 09:28:33;;;;;;;;;25.25;22.00;;;;;14.36;74.78;99298.41;5033735;28;45910;-70
2022/09/29 09:31:38;;;;;;;;;76.00;61.00;;;;;14.46;74.29;99300.13;5029486;28;46192;-69
2022/09/29 09:34:22;;;;;;;;;46.25;40.00;;;;;14.50;73.85;99269.41;5029937;28;45369;-69
2022/09/29 09:37:26;;;;;;;;;30.50;30.25;;;;;14.78;73.94;99291.19;5026943;28;45517;-70
2022/09/29 09:39:57;;;;;;;;;30.25;29.25;;;;;14.88;73.52;99268.28;4973365;28;45483;-70
2022/09/29 09:42:32;;;;;;;;;15.00;14.25;;;;;15.05;73.25;99269.03;4974635;28;45488;-70
2022/09/29 09:45:23;;;;;;;;;22.00;21.75;;;;;15.29;72.72;99273.19;5009278;28;45357;-70
2022/09/29 09:48:00;;;;;;;;;12.00;10.00;;;;;15.28;72.48;99239.88;5036964;28;45520;-70
2022/09/29 09:50:26;;;;;;;;;11.33;11.33;;;;;15.62;72.12;99262.34;5035953;28;45541;-70
2022/09/29 09:53:04;;;;;;;;;15.00;15.00;;;;;15.94;71.87;99271.69;5034290;28;45378;-69
2022/09/29 09:55:35;;;;;;;;;1.00;1.00;;;;;16.04;70.45;99268.03;5022830;28;45178;-70
2022/09/29 09:58:13;;;;;;;;;2.00;2.00;;;;;16.24;70.55;99286.22;5034790;28;45515;-70
2022/09/29 10:00:58;;;;;;;;;2.00;2.00;;;;;16.32;69.63;99286.13;5030126;28;45579;-69
2022/09/29 10:03:27;;;;;;;;;0.00;0.00;;;;;16.48;69.58;99290.28;5030409;28;45663;-70
2022/09/29 10:05:54;;;;;;;;;1.00;0.00;;;;;16.43;69.73;99271.00;5027338;28;45482;-69
2022/09/29 10:08:25;;;;;;;;;0.00;0.00;;;;;16.60;69.61;99276.03;5027126;28;45481;-69
2022/09/29 10:10:53;;;;;;;;;0.00;0.00;;;;;16.60;69.02;99273.41;5028873;28;46813;-69
2022/09/29 10:13:19;;;;;;;;;1.67;1.00;;;;;16.77;68.60;99284.56;5030380;28;45510;-68
2022/09/29 10:15:54;;;;;;;;;0.00;0.00;;;;;16.93;69.40;99281.69;5028945;28;45556;-68
2022/09/29 10:18:22;;;;;;;;;0.00;0.00;;;;;17.00;68.78;99286.84;5031489;28;45454;-68
2022/09/29 10:20:48;;;;;;;;;0.00;0.00;;;;;16.87;68.37;99261.56;5025889;28;45383;-68
2022/09/29 10:23:28;;;;;;;;;0.00;0.00;;;;;17.01;69.10;99280.69;5024491;28;45582;-68
2022/09/29 10:26:00;;;;;;;;;0.00;0.00;;;;;17.01;68.32;99272.78;5034567;28;45346;-69
2022/09/29 10:28:36;;;;;;;;;4.00;4.00;;;;;17.03;68.93;99281.53;5026935;28;45363;-69
2022/09/29 10:31:01;;;;;;;;;7.00;6.33;;;;;17.03;69.21;99272.75;5035025;28;45448;-70
2022/09/29 10:33:27;;;;;;;;;2.00;0.00;;;;;16.96;69.40;99265.84;5048536;28;47732;-69
2022/09/29 10:36:06;;;;;;;;;0.00;0.00;;;;;17.01;69.55;99293.00;5034841;28;45537;-70
2022/09/29 10:38:32;;;;;;;;;0.00;0.00;;;;;16.92;69.96;99282.63;5034186;28;45488;-68
2022/09/29 10:41:06;;;;;;;;;0.00;0.00;;;;;16.92;70.13;99286.13;5029731;28;45797;-71
2022/09/29 10:43:37;;;;;;;;;1.00;0.00;;;;;16.86;70.11;99292.34;5032015;28;45576;-69
2022/09/29 10:46:04;;;;;;;;;0.00;0.00;;;;;16.81;70.52;99285.38;5036166;28;45428;-70
2022/09/29 10:48:30;;;;;;;;;9.00;8.67;;;;;16.69;70.00;99266.22;5035385;28;45406;-70
2022/09/29 10:51:02;;;;;;;;;2.67;2.67;;;;;16.78;70.77;99281.03;5051953;28;45521;-70
2022/09/29 10:53:35;;;;;;;;;5.00;4.67;;;;;16.73;70.53;99259.13;5035555;28;45641;-70
2022/09/29 10:56:09;;;;;;;;;9.00;8.00;;;;;16.80;69.98;99265.19;5033196;28;45440;-70
2022/09/29 10:58:44;;;;;;;;;5.67;5.00;;;;;16.97;69.56;99264.94;5050720;28;45429;-70
2022/09/29 11:01:18;;;;;;;;;4.00;4.00;;;;;17.05;68.34;99265.66;5033691;28;45573;-69
2022/09/29 11:03:51;;;;;;;;;2.00;2.00;;;;;17.05;68.71;99270.94;5016096;28;45672;-70
2022/09/29 11:06:26;;;;;;;;;4.33;4.33;;;;;17.00;68.60;99260.47;5031625;28;45520;-69
2022/09/29 11:09:14;;;;;;;;;3.33;3.33;;;;;17.02;68.82;99245.50;5036024;28;46146;-70
2022/09/29 11:12:00;;;;;;;;;6.00;5.33;;;;;17.27;68.28;99276.75;5035132;28;45509;-70
2022/09/29 11:14:41;;;;;;;;;16.67;16.33;;;;;17.30;68.23;99255.56;5035323;28;45394;-70
2022/09/29 11:17:28;;;;;;;;;9.67;9.67;;;;;17.52;67.95;99276.28;5035466;28;45399;-70
2022/09/29 11:19:59;;;;;;;;;5.00;5.00;;;;;17.45;68.62;99270.28;5035493;28;45560;-70
2022/09/29 11:22:49;;;;;;;;;3.33;3.33;;;;;17.54;68.37;99272.72;5035815;28;45649;-70
2022/09/29 11:25:36;;;;;;;;;8.67;8.67;;;;;17.68;67.88;99275.97;5035324;28;45967;-70
2022/09/29 11:28:02;;;;;;;;;4.00;4.00;;;;;17.93;67.42;99272.88;5036275;28;45354;-70
2022/09/29 11:31:00;;;;;;;;;13.67;12.00;;;;;18.05;66.76;99262.06;5039610;28;45483;-70
2022/09/29 11:33:55;;;;;;;;;4.67;4.67;;;;;18.26;66.17;99265.13;5039552;28;45394;-70
2022/09/29 11:36:55;;;;;;;;;3.00;3.00;;;;;18.19;65.02;99247.69;5038323;28;46178;-70
2022/09/29 11:39:49;;;;;;;;;2.00;2.00;;;;;18.31;65.03;99260.63;4999656;28;45295;-70
2022/09/29 11:42:23;;;;;;;;;0.00;0.00;;;;;18.38;65.75;99264.88;5036307;28;45668;-70
2022/09/29 11:44:57;;;;;;;;;0.00;0.00;;;;;18.38;64.03;99266.63;5038998;28;45386;-70
2022/09/29 11:47:45;;;;;;;;;0.00;0.00;;;;;18.37;64.92;99263.13;5038651;28;45432;-70
2022/09/29 11:50:13;;;;;;;;;0.67;0.67;;;;;18.39;64.69;99263.97;5038591;28;45428;-70
2022/09/29 11:52:57;;;;;;;;;1.33;1.33;;;;;18.49;64.45;99264.63;5038472;28;45481;-70